sensor_id;sensor_type;location;lat;lon;timestamp;P1;durP1;ratioP1;P2;durP2;ratioP2
48052;SDS011;33824;51.600;5.718;2023-05-10T00:00:13;4.97;;;2.97;;
48052;SDS011;33824;51.600;5.718;2023-05-10T00:02:58;3.53;;;2.13;;
48052;SDS011;33824;51.600;5.718;2023-05-10T00:05:24;3.60;;;2.40;;
48052;SDS011;33824;51.600;5.718;2023-05-10T00:07:50;5.25;;;2.88;;
48052;SDS011;33824;51.600;5.718;2023-05-10T00:10:16;3.63;;;2.28;;
48052;SDS011;33824;51.600;5.718;2023-05-10T00:12:41;4.88;;;2.50;;
48052;SDS011;33824;51.600;5.718;2023-05-10T00:15:07;2.75;;;1.83;;
48052;SDS011;33824;51.600;5.718;2023-05-10T00:17:33;3.05;;;2.08;;
48052;SDS011;33824;51.600;5.718;2023-05-10T00:20:00;3.67;;;2.28;;
48052;SDS011;33824;51.600;5.718;2023-05-10T00:22:25;3.90;;;2.53;;
48052;SDS011;33824;51.600;5.718;2023-05-10T00:24:51;3.45;;;2.38;;
48052;SDS011;33824;51.600;5.718;2023-05-10T00:27:16;3.03;;;2.08;;
48052;SDS011;33824;51.600;5.718;2023-05-10T00:29:42;3.42;;;2.28;;
48052;SDS011;33824;51.600;5.718;2023-05-10T00:32:07;3.28;;;2.35;;
48052;SDS011;33824;51.600;5.718;2023-05-10T00:34:33;3.50;;;2.35;;
48052;SDS011;33824;51.600;5.718;2023-05-10T00:36:58;4.07;;;2.45;;
48052;SDS011;33824;51.600;5.718;2023-05-10T00:39:24;3.85;;;2.55;;
48052;SDS011;33824;51.600;5.718;2023-05-10T00:41:51;4.07;;;2.95;;
48052;SDS011;33824;51.600;5.718;2023-05-10T00:44:17;4.50;;;2.83;;
48052;SDS011;33824;51.600;5.718;2023-05-10T00:46:43;4.03;;;2.83;;
48052;SDS011;33824;51.600;5.718;2023-05-10T00:49:10;4.72;;;2.80;;
48052;SDS011;33824;51.600;5.718;2023-05-10T00:51:36;4.35;;;2.72;;
48052;SDS011;33824;51.600;5.718;2023-05-10T00:54:02;4.68;;;2.90;;
48052;SDS011;33824;51.600;5.718;2023-05-10T00:56:28;4.90;;;3.08;;
48052;SDS011;33824;51.600;5.718;2023-05-10T00:58:55;3.72;;;2.78;;
48052;SDS011;33824;51.600;5.718;2023-05-10T01:01:20;5.03;;;2.90;;
48052;SDS011;33824;51.600;5.718;2023-05-10T01:03:46;5.55;;;3.45;;
48052;SDS011;33824;51.600;5.718;2023-05-10T01:06:12;4.30;;;2.78;;
48052;SDS011;33824;51.600;5.718;2023-05-10T01:08:38;6.43;;;3.22;;
48052;SDS011;33824;51.600;5.718;2023-05-10T01:11:04;6.35;;;3.67;;
48052;SDS011;33824;51.600;5.718;2023-05-10T01:13:33;9.05;;;4.35;;
48052;SDS011;33824;51.600;5.718;2023-05-10T01:16:02;5.13;;;3.30;;
48052;SDS011;33824;51.600;5.718;2023-05-10T01:18:29;7.28;;;4.50;;
48052;SDS011;33824;51.600;5.718;2023-05-10T01:23:39;6.55;;;3.95;;
48052;SDS011;33824;51.600;5.718;2023-05-10T01:26:26;5.32;;;3.58;;
48052;SDS011;33824;51.600;5.718;2023-05-10T01:29:14;6.68;;;3.70;;
48052;SDS011;33824;51.600;5.718;2023-05-10T01:31:59;7.43;;;4.35;;
48052;SDS011;33824;51.600;5.718;2023-05-10T01:34:32;6.75;;;4.22;;
48052;SDS011;33824;51.600;5.718;2023-05-10T01:37:10;8.05;;;4.03;;
48052;SDS011;33824;51.600;5.718;2023-05-10T01:39:50;6.93;;;4.22;;
48052;SDS011;33824;51.600;5.718;2023-05-10T01:42:20;7.07;;;4.30;;
48052;SDS011;33824;51.600;5.718;2023-05-10T01:47:41;10.77;;;4.70;;
48052;SDS011;33824;51.600;5.718;2023-05-10T01:50:16;6.22;;;3.97;;
48052;SDS011;33824;51.600;5.718;2023-05-10T01:52:47;7.55;;;4.30;;
48052;SDS011;33824;51.600;5.718;2023-05-10T01:55:18;8.20;;;4.68;;
48052;SDS011;33824;51.600;5.718;2023-05-10T01:57:46;7.22;;;4.30;;
48052;SDS011;33824;51.600;5.718;2023-05-10T02:00:16;7.90;;;4.73;;
48052;SDS011;33824;51.600;5.718;2023-05-10T02:02:47;7.80;;;4.82;;
48052;SDS011;33824;51.600;5.718;2023-05-10T02:05:15;8.75;;;5.15;;
48052;SDS011;33824;51.600;5.718;2023-05-10T02:07:42;14.15;;;5.70;;
48052;SDS011;33824;51.600;5.718;2023-05-10T02:10:09;14.23;;;6.18;;
48052;SDS011;33824;51.600;5.718;2023-05-10T02:12:36;13.07;;;6.47;;
48052;SDS011;33824;51.600;5.718;2023-05-10T02:15:04;16.90;;;7.65;;
48052;SDS011;33824;51.600;5.718;2023-05-10T02:17:32;18.65;;;8.20;;
48052;SDS011;33824;51.600;5.718;2023-05-10T02:19:59;21.23;;;9.38;;
48052;SDS011;33824;51.600;5.718;2023-05-10T02:22:27;16.13;;;8.10;;
48052;SDS011;33824;51.600;5.718;2023-05-10T02:24:54;18.58;;;9.20;;
48052;SDS011;33824;51.600;5.718;2023-05-10T02:27:23;20.38;;;8.52;;
48052;SDS011;33824;51.600;5.718;2023-05-10T02:29:49;19.88;;;9.40;;
48052;SDS011;33824;51.600;5.718;2023-05-10T02:32:16;17.33;;;8.48;;
48052;SDS011;33824;51.600;5.718;2023-05-10T02:34:43;16.10;;;8.52;;
48052;SDS011;33824;51.600;5.718;2023-05-10T02:37:11;16.75;;;7.97;;
48052;SDS011;33824;51.600;5.718;2023-05-10T02:39:39;17.95;;;8.90;;
48052;SDS011;33824;51.600;5.718;2023-05-10T02:42:10;20.13;;;9.45;;
48052;SDS011;33824;51.600;5.718;2023-05-10T02:44:42;19.48;;;9.52;;
48052;SDS011;33824;51.600;5.718;2023-05-10T02:47:08;21.35;;;9.93;;
48052;SDS011;33824;51.600;5.718;2023-05-10T02:49:34;20.73;;;10.32;;
48052;SDS011;33824;51.600;5.718;2023-05-10T02:52:00;20.30;;;9.48;;
48052;SDS011;33824;51.600;5.718;2023-05-10T02:54:31;21.10;;;9.23;;
48052;SDS011;33824;51.600;5.718;2023-05-10T02:57:04;19.55;;;8.88;;
48052;SDS011;33824;51.600;5.718;2023-05-10T02:59:31;17.60;;;9.18;;
48052;SDS011;33824;51.600;5.718;2023-05-10T03:01:58;17.27;;;8.50;;
48052;SDS011;33824;51.600;5.718;2023-05-10T03:04:25;17.85;;;8.27;;
48052;SDS011;33824;51.600;5.718;2023-05-10T03:06:51;20.00;;;9.63;;
48052;SDS011;33824;51.600;5.718;2023-05-10T03:09:17;18.63;;;9.55;;
48052;SDS011;33824;51.600;5.718;2023-05-10T03:11:58;21.05;;;9.05;;
48052;SDS011;33824;51.600;5.718;2023-05-10T03:17:10;18.67;;;9.55;;
48052;SDS011;33824;51.600;5.718;2023-05-10T03:19:43;14.32;;;7.75;;
48052;SDS011;33824;51.600;5.718;2023-05-10T03:22:18;17.15;;;9.13;;
48052;SDS011;33824;51.600;5.718;2023-05-10T03:24:49;16.48;;;8.30;;
48052;SDS011;33824;51.600;5.718;2023-05-10T03:27:19;17.30;;;8.27;;
48052;SDS011;33824;51.600;5.718;2023-05-10T03:29:46;16.15;;;8.65;;
48052;SDS011;33824;51.600;5.718;2023-05-10T03:32:12;17.05;;;8.50;;
48052;SDS011;33824;51.600;5.718;2023-05-10T03:34:41;16.42;;;8.65;;
48052;SDS011;33824;51.600;5.718;2023-05-10T03:37:08;19.38;;;10.20;;
48052;SDS011;33824;51.600;5.718;2023-05-10T03:39:33;21.27;;;10.30;;
48052;SDS011;33824;51.600;5.718;2023-05-10T03:41:59;16.48;;;8.82;;
48052;SDS011;33824;51.600;5.718;2023-05-10T03:44:24;14.63;;;8.40;;
48052;SDS011;33824;51.600;5.718;2023-05-10T03:46:50;17.08;;;8.93;;
48052;SDS011;33824;51.600;5.718;2023-05-10T03:49:15;17.98;;;9.15;;
48052;SDS011;33824;51.600;5.718;2023-05-10T03:51:41;17.00;;;8.93;;
48052;SDS011;33824;51.600;5.718;2023-05-10T03:54:06;19.83;;;9.85;;
48052;SDS011;33824;51.600;5.718;2023-05-10T03:56:32;19.20;;;9.82;;
48052;SDS011;33824;51.600;5.718;2023-05-10T03:58:57;18.33;;;9.85;;
48052;SDS011;33824;51.600;5.718;2023-05-10T04:01:23;15.95;;;8.98;;
48052;SDS011;33824;51.600;5.718;2023-05-10T04:03:52;22.25;;;10.90;;
48052;SDS011;33824;51.600;5.718;2023-05-10T04:06:17;15.10;;;8.57;;
48052;SDS011;33824;51.600;5.718;2023-05-10T04:08:43;18.55;;;9.60;;
48052;SDS011;33824;51.600;5.718;2023-05-10T04:11:09;20.27;;;9.82;;
48052;SDS011;33824;51.600;5.718;2023-05-10T04:13:36;24.83;;;10.82;;
48052;SDS011;33824;51.600;5.718;2023-05-10T04:16:03;18.33;;;9.30;;
48052;SDS011;33824;51.600;5.718;2023-05-10T04:18:29;19.38;;;9.45;;
48052;SDS011;33824;51.600;5.718;2023-05-10T04:20:55;17.40;;;9.45;;
48052;SDS011;33824;51.600;5.718;2023-05-10T04:23:24;17.50;;;9.52;;
48052;SDS011;33824;51.600;5.718;2023-05-10T04:25:49;16.73;;;9.57;;
48052;SDS011;33824;51.600;5.718;2023-05-10T04:28:15;17.70;;;9.82;;
48052;SDS011;33824;51.600;5.718;2023-05-10T04:30:40;18.05;;;9.68;;
48052;SDS011;33824;51.600;5.718;2023-05-10T04:33:06;15.25;;;8.50;;
48052;SDS011;33824;51.600;5.718;2023-05-10T04:35:32;18.50;;;8.63;;
48052;SDS011;33824;51.600;5.718;2023-05-10T04:37:57;15.73;;;8.48;;
48052;SDS011;33824;51.600;5.718;2023-05-10T04:40:23;18.02;;;9.10;;
48052;SDS011;33824;51.600;5.718;2023-05-10T04:42:48;14.07;;;8.57;;
48052;SDS011;33824;51.600;5.718;2023-05-10T04:45:14;15.68;;;8.82;;
48052;SDS011;33824;51.600;5.718;2023-05-10T04:47:40;15.48;;;8.75;;
48052;SDS011;33824;51.600;5.718;2023-05-10T04:50:06;17.42;;;8.77;;
48052;SDS011;33824;51.600;5.718;2023-05-10T04:52:32;15.38;;;8.50;;
48052;SDS011;33824;51.600;5.718;2023-05-10T04:54:58;13.57;;;7.78;;
48052;SDS011;33824;51.600;5.718;2023-05-10T04:57:23;13.70;;;7.20;;
48052;SDS011;33824;51.600;5.718;2023-05-10T04:59:49;16.45;;;7.93;;
48052;SDS011;33824;51.600;5.718;2023-05-10T05:02:14;16.27;;;7.63;;
48052;SDS011;33824;51.600;5.718;2023-05-10T05:04:40;13.35;;;6.68;;
48052;SDS011;33824;51.600;5.718;2023-05-10T05:07:06;14.75;;;7.85;;
48052;SDS011;33824;51.600;5.718;2023-05-10T05:09:31;13.15;;;7.55;;
48052;SDS011;33824;51.600;5.718;2023-05-10T05:11:57;15.02;;;7.65;;
48052;SDS011;33824;51.600;5.718;2023-05-10T05:14:23;14.98;;;7.75;;
48052;SDS011;33824;51.600;5.718;2023-05-10T05:16:50;16.65;;;7.40;;
48052;SDS011;33824;51.600;5.718;2023-05-10T05:19:17;16.17;;;7.97;;
48052;SDS011;33824;51.600;5.718;2023-05-10T05:21:42;11.10;;;5.53;;
48052;SDS011;33824;51.600;5.718;2023-05-10T05:24:08;13.45;;;6.55;;
48052;SDS011;33824;51.600;5.718;2023-05-10T05:26:35;14.20;;;6.57;;
48052;SDS011;33824;51.600;5.718;2023-05-10T05:29:01;13.23;;;5.97;;
48052;SDS011;33824;51.600;5.718;2023-05-10T05:31:26;12.88;;;6.60;;
48052;SDS011;33824;51.600;5.718;2023-05-10T05:33:52;15.68;;;7.03;;
48052;SDS011;33824;51.600;5.718;2023-05-10T05:36:18;11.57;;;6.03;;
48052;SDS011;33824;51.600;5.718;2023-05-10T05:38:43;12.60;;;6.35;;
48052;SDS011;33824;51.600;5.718;2023-05-10T05:41:09;9.88;;;6.25;;
48052;SDS011;33824;51.600;5.718;2023-05-10T05:43:34;11.55;;;6.50;;
48052;SDS011;33824;51.600;5.718;2023-05-10T05:46:00;10.82;;;5.80;;
48052;SDS011;33824;51.600;5.718;2023-05-10T05:48:25;10.98;;;5.60;;
48052;SDS011;33824;51.600;5.718;2023-05-10T05:50:54;14.88;;;7.38;;
48052;SDS011;33824;51.600;5.718;2023-05-10T05:53:21;12.77;;;6.10;;
48052;SDS011;33824;51.600;5.718;2023-05-10T05:55:51;11.98;;;5.90;;
48052;SDS011;33824;51.600;5.718;2023-05-10T05:58:20;9.75;;;6.03;;
48052;SDS011;33824;51.600;5.718;2023-05-10T06:00:47;11.90;;;6.68;;
48052;SDS011;33824;51.600;5.718;2023-05-10T06:03:12;12.40;;;6.47;;
48052;SDS011;33824;51.600;5.718;2023-05-10T06:05:38;11.88;;;6.40;;
48052;SDS011;33824;51.600;5.718;2023-05-10T06:08:03;12.65;;;5.90;;
48052;SDS011;33824;51.600;5.718;2023-05-10T06:10:29;12.95;;;6.40;;
48052;SDS011;33824;51.600;5.718;2023-05-10T06:12:55;10.50;;;6.00;;
48052;SDS011;33824;51.600;5.718;2023-05-10T06:15:21;11.70;;;6.38;;
48052;SDS011;33824;51.600;5.718;2023-05-10T06:17:47;9.85;;;6.07;;
48052;SDS011;33824;51.600;5.718;2023-05-10T06:20:17;12.38;;;5.80;;
48052;SDS011;33824;51.600;5.718;2023-05-10T06:22:42;13.52;;;6.13;;
48052;SDS011;33824;51.600;5.718;2023-05-10T06:25:09;9.70;;;5.90;;
48052;SDS011;33824;51.600;5.718;2023-05-10T06:27:35;10.85;;;6.10;;
48052;SDS011;33824;51.600;5.718;2023-05-10T06:30:01;10.48;;;6.30;;
48052;SDS011;33824;51.600;5.718;2023-05-10T06:32:28;10.00;;;5.63;;
48052;SDS011;33824;51.600;5.718;2023-05-10T06:34:53;10.52;;;5.82;;
48052;SDS011;33824;51.600;5.718;2023-05-10T06:37:19;10.30;;;6.38;;
48052;SDS011;33824;51.600;5.718;2023-05-10T06:39:45;10.80;;;4.90;;
48052;SDS011;33824;51.600;5.718;2023-05-10T06:42:11;9.85;;;5.93;;
48052;SDS011;33824;51.600;5.718;2023-05-10T06:44:36;11.55;;;6.15;;
48052;SDS011;33824;51.600;5.718;2023-05-10T06:47:02;11.38;;;6.38;;
48052;SDS011;33824;51.600;5.718;2023-05-10T06:49:27;11.20;;;5.88;;
48052;SDS011;33824;51.600;5.718;2023-05-10T06:51:53;9.20;;;5.22;;
48052;SDS011;33824;51.600;5.718;2023-05-10T06:54:20;11.63;;;6.68;;
48052;SDS011;33824;51.600;5.718;2023-05-10T06:56:45;13.25;;;6.78;;
48052;SDS011;33824;51.600;5.718;2023-05-10T06:59:11;9.50;;;5.47;;
48052;SDS011;33824;51.600;5.718;2023-05-10T07:01:39;10.95;;;6.32;;
48052;SDS011;33824;51.600;5.718;2023-05-10T07:04:04;13.93;;;7.13;;
48052;SDS011;33824;51.600;5.718;2023-05-10T07:06:30;10.65;;;6.22;;
48052;SDS011;33824;51.600;5.718;2023-05-10T07:08:56;11.73;;;6.43;;
48052;SDS011;33824;51.600;5.718;2023-05-10T07:11:22;13.52;;;5.75;;
48052;SDS011;33824;51.600;5.718;2023-05-10T07:13:47;10.60;;;6.00;;
48052;SDS011;33824;51.600;5.718;2023-05-10T07:16:13;11.60;;;6.03;;
48052;SDS011;33824;51.600;5.718;2023-05-10T07:18:38;10.82;;;6.25;;
48052;SDS011;33824;51.600;5.718;2023-05-10T07:21:04;12.80;;;6.40;;
48052;SDS011;33824;51.600;5.718;2023-05-10T07:23:29;13.52;;;6.88;;
48052;SDS011;33824;51.600;5.718;2023-05-10T07:25:55;12.07;;;6.55;;
48052;SDS011;33824;51.600;5.718;2023-05-10T07:28:22;9.43;;;5.32;;
48052;SDS011;33824;51.600;5.718;2023-05-10T07:30:49;13.32;;;7.15;;
48052;SDS011;33824;51.600;5.718;2023-05-10T07:33:15;11.55;;;5.93;;
48052;SDS011;33824;51.600;5.718;2023-05-10T07:35:41;8.70;;;5.57;;
48052;SDS011;33824;51.600;5.718;2023-05-10T07:38:08;13.18;;;6.53;;
48052;SDS011;33824;51.600;5.718;2023-05-10T07:40:33;12.27;;;6.57;;
48052;SDS011;33824;51.600;5.718;2023-05-10T07:42:59;10.43;;;5.57;;
48052;SDS011;33824;51.600;5.718;2023-05-10T07:45:28;10.15;;;5.90;;
48052;SDS011;33824;51.600;5.718;2023-05-10T07:47:53;11.60;;;5.57;;
48052;SDS011;33824;51.600;5.718;2023-05-10T07:50:19;9.85;;;5.88;;
48052;SDS011;33824;51.600;5.718;2023-05-10T07:52:46;11.38;;;6.65;;
48052;SDS011;33824;51.600;5.718;2023-05-10T07:55:12;12.70;;;6.55;;
48052;SDS011;33824;51.600;5.718;2023-05-10T07:57:38;13.10;;;6.43;;
48052;SDS011;33824;51.600;5.718;2023-05-10T08:00:03;14.05;;;6.25;;
48052;SDS011;33824;51.600;5.718;2023-05-10T08:02:29;12.18;;;6.47;;
48052;SDS011;33824;51.600;5.718;2023-05-10T08:04:55;12.55;;;6.60;;
48052;SDS011;33824;51.600;5.718;2023-05-10T08:07:21;11.38;;;6.03;;
48052;SDS011;33824;51.600;5.718;2023-05-10T08:09:48;11.60;;;6.53;;
48052;SDS011;33824;51.600;5.718;2023-05-10T08:12:13;13.10;;;6.85;;
48052;SDS011;33824;51.600;5.718;2023-05-10T08:14:39;13.38;;;6.50;;
48052;SDS011;33824;51.600;5.718;2023-05-10T08:17:05;14.20;;;7.35;;
48052;SDS011;33824;51.600;5.718;2023-05-10T08:19:31;11.05;;;6.32;;
48052;SDS011;33824;51.600;5.718;2023-05-10T08:21:57;11.48;;;6.28;;
48052;SDS011;33824;51.600;5.718;2023-05-10T08:24:23;13.23;;;7.53;;
48052;SDS011;33824;51.600;5.718;2023-05-10T08:26:48;11.75;;;6.10;;
48052;SDS011;33824;51.600;5.718;2023-05-10T08:29:14;8.57;;;5.65;;
48052;SDS011;33824;51.600;5.718;2023-05-10T08:31:40;12.23;;;6.47;;
48052;SDS011;33824;51.600;5.718;2023-05-10T08:34:06;11.32;;;6.13;;
48052;SDS011;33824;51.600;5.718;2023-05-10T08:36:32;11.90;;;6.45;;
48052;SDS011;33824;51.600;5.718;2023-05-10T08:38:58;11.45;;;6.53;;
48052;SDS011;33824;51.600;5.718;2023-05-10T08:41:24;10.60;;;6.28;;
48052;SDS011;33824;51.600;5.718;2023-05-10T08:43:54;13.32;;;6.70;;
48052;SDS011;33824;51.600;5.718;2023-05-10T08:46:20;15.30;;;7.00;;
48052;SDS011;33824;51.600;5.718;2023-05-10T08:48:49;12.27;;;6.82;;
48052;SDS011;33824;51.600;5.718;2023-05-10T08:51:18;14.52;;;7.20;;
48052;SDS011;33824;51.600;5.718;2023-05-10T08:53:45;12.43;;;7.15;;
48052;SDS011;33824;51.600;5.718;2023-05-10T08:56:11;11.82;;;6.45;;
48052;SDS011;33824;51.600;5.718;2023-05-10T08:58:37;10.00;;;5.50;;
48052;SDS011;33824;51.600;5.718;2023-05-10T09:01:03;9.82;;;5.68;;
48052;SDS011;33824;51.600;5.718;2023-05-10T09:03:30;9.98;;;5.13;;
48052;SDS011;33824;51.600;5.718;2023-05-10T09:05:56;12.27;;;5.25;;
48052;SDS011;33824;51.600;5.718;2023-05-10T09:08:25;10.52;;;6.53;;
48052;SDS011;33824;51.600;5.718;2023-05-10T09:10:51;10.52;;;5.45;;
48052;SDS011;33824;51.600;5.718;2023-05-10T09:13:17;9.52;;;4.80;;
48052;SDS011;33824;51.600;5.718;2023-05-10T09:15:44;8.75;;;5.35;;
48052;SDS011;33824;51.600;5.718;2023-05-10T09:18:11;11.70;;;5.75;;
48052;SDS011;33824;51.600;5.718;2023-05-10T09:20:36;8.15;;;5.38;;
48052;SDS011;33824;51.600;5.718;2023-05-10T09:23:02;9.77;;;5.68;;
48052;SDS011;33824;51.600;5.718;2023-05-10T09:25:28;8.10;;;4.80;;
48052;SDS011;33824;51.600;5.718;2023-05-10T09:27:54;9.73;;;5.00;;
48052;SDS011;33824;51.600;5.718;2023-05-10T09:30:29;8.15;;;4.55;;
48052;SDS011;33824;51.600;5.718;2023-05-10T09:32:56;6.22;;;3.97;;
48052;SDS011;33824;51.600;5.718;2023-05-10T09:35:24;8.65;;;4.88;;
48052;SDS011;33824;51.600;5.718;2023-05-10T09:37:52;8.20;;;4.63;;
48052;SDS011;33824;51.600;5.718;2023-05-10T09:40:20;6.38;;;3.92;;
48052;SDS011;33824;51.600;5.718;2023-05-10T09:45:26;6.10;;;3.40;;
48052;SDS011;33824;51.600;5.718;2023-05-10T09:47:54;6.07;;;3.95;;
48052;SDS011;33824;51.600;5.718;2023-05-10T09:50:20;6.53;;;4.15;;
48052;SDS011;33824;51.600;5.718;2023-05-10T09:52:53;7.13;;;4.03;;
48052;SDS011;33824;51.600;5.718;2023-05-10T09:55:23;8.68;;;3.83;;
48052;SDS011;33824;51.600;5.718;2023-05-10T09:57:58;4.53;;;3.47;;
48052;SDS011;33824;51.600;5.718;2023-05-10T10:00:24;7.25;;;3.97;;
48052;SDS011;33824;51.600;5.718;2023-05-10T10:02:55;5.30;;;3.38;;
48052;SDS011;33824;51.600;5.718;2023-05-10T10:05:32;6.10;;;3.40;;
48052;SDS011;33824;51.600;5.718;2023-05-10T10:08:00;5.28;;;2.95;;
48052;SDS011;33824;51.600;5.718;2023-05-10T10:10:27;6.18;;;3.28;;
48052;SDS011;33824;51.600;5.718;2023-05-10T10:12:53;5.93;;;2.97;;
48052;SDS011;33824;51.600;5.718;2023-05-10T10:15:20;5.18;;;3.10;;
48052;SDS011;33824;51.600;5.718;2023-05-10T10:17:48;5.20;;;2.80;;
48052;SDS011;33824;51.600;5.718;2023-05-10T10:20:15;4.30;;;2.70;;
48052;SDS011;33824;51.600;5.718;2023-05-10T10:22:41;3.92;;;2.80;;
48052;SDS011;33824;51.600;5.718;2023-05-10T10:25:09;5.43;;;3.33;;
48052;SDS011;33824;51.600;5.718;2023-05-10T10:36:05;3.70;;;2.58;;
48052;SDS011;33824;51.600;5.718;2023-05-10T10:49:38;5.45;;;2.72;;
48052;SDS011;33824;51.600;5.718;2023-05-10T10:52:14;5.35;;;2.60;;
48052;SDS011;33824;51.600;5.718;2023-05-10T10:54:52;4.45;;;2.72;;
48052;SDS011;33824;51.600;5.718;2023-05-10T10:57:24;4.32;;;2.42;;
48052;SDS011;33824;51.600;5.718;2023-05-10T10:59:54;3.58;;;2.20;;
48052;SDS011;33824;51.600;5.718;2023-05-10T11:02:57;4.95;;;2.40;;
48052;SDS011;33824;51.600;5.718;2023-05-10T11:05:25;5.43;;;2.50;;
48052;SDS011;33824;51.600;5.718;2023-05-10T11:07:57;3.50;;;2.03;;
48052;SDS011;33824;51.600;5.718;2023-05-10T11:10:25;5.10;;;2.35;;
48052;SDS011;33824;51.600;5.718;2023-05-10T11:13:10;4.85;;;2.40;;
48052;SDS011;33824;51.600;5.718;2023-05-10T11:15:36;6.13;;;2.65;;
48052;SDS011;33824;51.600;5.718;2023-05-10T11:18:19;3.03;;;2.53;;
48052;SDS011;33824;51.600;5.718;2023-05-10T11:20:52;3.38;;;2.53;;
48052;SDS011;33824;51.600;5.718;2023-05-10T11:23:22;3.88;;;2.45;;
48052;SDS011;33824;51.600;5.718;2023-05-10T11:25:49;6.85;;;2.45;;
48052;SDS011;33824;51.600;5.718;2023-05-10T11:28:16;6.15;;;2.67;;
48052;SDS011;33824;51.600;5.718;2023-05-10T11:30:45;7.07;;;2.67;;
48052;SDS011;33824;51.600;5.718;2023-05-10T11:33:15;4.15;;;2.67;;
48052;SDS011;33824;51.600;5.718;2023-05-10T11:35:42;4.20;;;3.00;;
48052;SDS011;33824;51.600;5.718;2023-05-10T11:38:08;4.97;;;2.60;;
48052;SDS011;33824;51.600;5.718;2023-05-10T11:40:38;5.65;;;3.50;;
48052;SDS011;33824;51.600;5.718;2023-05-10T11:43:04;4.07;;;2.42;;
48052;SDS011;33824;51.600;5.718;2023-05-10T11:45:34;3.97;;;2.05;;
48052;SDS011;33824;51.600;5.718;2023-05-10T11:48:00;4.95;;;2.88;;
48052;SDS011;33824;51.600;5.718;2023-05-10T11:50:27;3.47;;;2.17;;
48052;SDS011;33824;51.600;5.718;2023-05-10T11:52:56;3.00;;;2.10;;
48052;SDS011;33824;51.600;5.718;2023-05-10T11:55:22;3.78;;;1.98;;
48052;SDS011;33824;51.600;5.718;2023-05-10T11:57:52;2.28;;;1.38;;
48052;SDS011;33824;51.600;5.718;2023-05-10T12:00:19;2.38;;;1.42;;
48052;SDS011;33824;51.600;5.718;2023-05-10T12:02:45;2.35;;;1.50;;
48052;SDS011;33824;51.600;5.718;2023-05-10T12:05:11;2.22;;;1.33;;
48052;SDS011;33824;51.600;5.718;2023-05-10T12:07:37;2.35;;;1.90;;
48052;SDS011;33824;51.600;5.718;2023-05-10T12:10:06;2.92;;;1.90;;
48052;SDS011;33824;51.600;5.718;2023-05-10T12:12:43;4.57;;;1.92;;
48052;SDS011;33824;51.600;5.718;2023-05-10T12:15:20;4.00;;;2.80;;
48052;SDS011;33824;51.600;5.718;2023-05-10T12:17:47;4.28;;;1.85;;
48052;SDS011;33824;51.600;5.718;2023-05-10T12:20:14;3.70;;;2.53;;
48052;SDS011;33824;51.600;5.718;2023-05-10T12:22:43;4.55;;;3.05;;
48052;SDS011;33824;51.600;5.718;2023-05-10T12:25:10;3.30;;;2.65;;
48052;SDS011;33824;51.600;5.718;2023-05-10T12:27:35;4.97;;;3.03;;
48052;SDS011;33824;51.600;5.718;2023-05-10T12:30:01;6.28;;;3.00;;
48052;SDS011;33824;51.600;5.718;2023-05-10T12:32:37;4.75;;;2.72;;
48052;SDS011;33824;51.600;5.718;2023-05-10T12:35:03;4.72;;;3.22;;
48052;SDS011;33824;51.600;5.718;2023-05-10T12:37:29;3.97;;;2.95;;
48052;SDS011;33824;51.600;5.718;2023-05-10T12:39:54;4.43;;;2.95;;
48052;SDS011;33824;51.600;5.718;2023-05-10T12:42:20;2.85;;;2.00;;
48052;SDS011;33824;51.600;5.718;2023-05-10T12:44:46;4.22;;;2.88;;
48052;SDS011;33824;51.600;5.718;2023-05-10T12:47:11;3.70;;;2.78;;
48052;SDS011;33824;51.600;5.718;2023-05-10T12:49:37;5.78;;;3.35;;
48052;SDS011;33824;51.600;5.718;2023-05-10T12:52:03;5.68;;;3.30;;
48052;SDS011;33824;51.600;5.718;2023-05-10T12:54:28;6.45;;;2.90;;
48052;SDS011;33824;51.600;5.718;2023-05-10T12:56:54;3.92;;;2.72;;
48052;SDS011;33824;51.600;5.718;2023-05-10T12:59:20;6.07;;;3.58;;
48052;SDS011;33824;51.600;5.718;2023-05-10T13:01:45;8.00;;;3.58;;
48052;SDS011;33824;51.600;5.718;2023-05-10T13:04:11;5.82;;;3.10;;
48052;SDS011;33824;51.600;5.718;2023-05-10T13:06:36;4.68;;;2.97;;
48052;SDS011;33824;51.600;5.718;2023-05-10T13:09:02;6.13;;;3.55;;
48052;SDS011;33824;51.600;5.718;2023-05-10T13:11:28;5.18;;;3.33;;
48052;SDS011;33824;51.600;5.718;2023-05-10T13:13:54;6.70;;;3.33;;
48052;SDS011;33824;51.600;5.718;2023-05-10T13:16:20;5.45;;;3.50;;
48052;SDS011;33824;51.600;5.718;2023-05-10T13:18:46;4.10;;;2.70;;
48052;SDS011;33824;51.600;5.718;2023-05-10T13:21:11;3.90;;;2.80;;
48052;SDS011;33824;51.600;5.718;2023-05-10T13:23:37;5.05;;;3.40;;
48052;SDS011;33824;51.600;5.718;2023-05-10T13:26:02;3.63;;;2.33;;
48052;SDS011;33824;51.600;5.718;2023-05-10T13:28:28;4.55;;;3.08;;
48052;SDS011;33824;51.600;5.718;2023-05-10T13:30:54;5.43;;;2.78;;
48052;SDS011;33824;51.600;5.718;2023-05-10T13:33:20;2.83;;;2.05;;
48052;SDS011;33824;51.600;5.718;2023-05-10T13:35:45;5.35;;;2.90;;
48052;SDS011;33824;51.600;5.718;2023-05-10T13:38:12;2.95;;;2.20;;
48052;SDS011;33824;51.600;5.718;2023-05-10T13:40:37;4.00;;;2.90;;
48052;SDS011;33824;51.600;5.718;2023-05-10T13:43:03;4.20;;;2.72;;
48052;SDS011;33824;51.600;5.718;2023-05-10T13:45:28;3.72;;;2.40;;
48052;SDS011;33824;51.600;5.718;2023-05-10T13:47:54;4.65;;;3.13;;
48052;SDS011;33824;51.600;5.718;2023-05-10T13:50:20;4.10;;;2.67;;
48052;SDS011;33824;51.600;5.718;2023-05-10T13:52:45;3.92;;;2.97;;
48052;SDS011;33824;51.600;5.718;2023-05-10T13:55:11;5.72;;;3.35;;
48052;SDS011;33824;51.600;5.718;2023-05-10T13:57:38;4.22;;;2.92;;
48052;SDS011;33824;51.600;5.718;2023-05-10T14:00:04;3.72;;;2.50;;
48052;SDS011;33824;51.600;5.718;2023-05-10T14:02:30;4.97;;;2.63;;
48052;SDS011;33824;51.600;5.718;2023-05-10T14:04:56;5.20;;;3.20;;
48052;SDS011;33824;51.600;5.718;2023-05-10T14:07:22;4.28;;;2.80;;
48052;SDS011;33824;51.600;5.718;2023-05-10T14:09:47;3.75;;;2.47;;
48052;SDS011;33824;51.600;5.718;2023-05-10T14:12:13;4.53;;;2.45;;
48052;SDS011;33824;51.600;5.718;2023-05-10T14:14:39;4.05;;;2.70;;
48052;SDS011;33824;51.600;5.718;2023-05-10T14:17:05;3.42;;;2.50;;
48052;SDS011;33824;51.600;5.718;2023-05-10T14:19:31;3.03;;;2.20;;
48052;SDS011;33824;51.600;5.718;2023-05-10T14:21:59;4.13;;;2.00;;
48052;SDS011;33824;51.600;5.718;2023-05-10T14:24:25;3.22;;;2.20;;
48052;SDS011;33824;51.600;5.718;2023-05-10T14:26:50;4.05;;;2.30;;
48052;SDS011;33824;51.600;5.718;2023-05-10T14:29:19;3.10;;;1.80;;
48052;SDS011;33824;51.600;5.718;2023-05-10T14:31:45;3.42;;;2.25;;
48052;SDS011;33824;51.600;5.718;2023-05-10T14:34:10;3.05;;;1.90;;
48052;SDS011;33824;51.600;5.718;2023-05-10T14:36:36;2.63;;;2.00;;
48052;SDS011;33824;51.600;5.718;2023-05-10T14:39:01;2.75;;;2.03;;
48052;SDS011;33824;51.600;5.718;2023-05-10T14:41:28;3.60;;;2.25;;
48052;SDS011;33824;51.600;5.718;2023-05-10T14:43:55;2.85;;;1.92;;
48052;SDS011;33824;51.600;5.718;2023-05-10T14:46:21;3.70;;;2.20;;
48052;SDS011;33824;51.600;5.718;2023-05-10T14:48:46;3.42;;;2.03;;
48052;SDS011;33824;51.600;5.718;2023-05-10T14:51:12;3.35;;;2.00;;
48052;SDS011;33824;51.600;5.718;2023-05-10T14:53:37;4.13;;;2.35;;
48052;SDS011;33824;51.600;5.718;2023-05-10T14:56:03;5.20;;;2.38;;
48052;SDS011;33824;51.600;5.718;2023-05-10T14:58:29;4.88;;;2.38;;
48052;SDS011;33824;51.600;5.718;2023-05-10T15:00:55;6.82;;;2.67;;
48052;SDS011;33824;51.600;5.718;2023-05-10T15:03:21;2.95;;;2.15;;
48052;SDS011;33824;51.600;5.718;2023-05-10T15:05:47;4.03;;;2.47;;
48052;SDS011;33824;51.600;5.718;2023-05-10T15:08:13;2.65;;;1.98;;
48052;SDS011;33824;51.600;5.718;2023-05-10T15:10:39;2.70;;;2.20;;